createdAt,value
2022-12-25T00:03:34.168Z,6.48
2022-12-25T00:08:33.328Z,6.45
2022-12-25T00:13:33.229Z,6.41
2022-12-25T00:18:33.198Z,6.38
2022-12-25T00:23:33.100Z,6.35
2022-12-25T00:28:33.023Z,6.29
2022-12-25T00:33:32.962Z,6.17
2022-12-25T00:38:32.898Z,6.05
2022-12-25T00:43:32.831Z,6.02
2022-12-25T00:48:32.786Z,5.99
2022-12-25T00:53:32.719Z,5.94
2022-12-25T00:58:32.626Z,5.93
2022-12-25T01:03:32.561Z,5.89
2022-12-25T01:08:32.528Z,5.79
2022-12-25T01:13:32.429Z,5.62
2022-12-25T01:18:32.351Z,5.40
2022-12-25T01:23:32.293Z,5.37
2022-12-25T01:28:32.219Z,5.31
2022-12-25T01:33:32.163Z,5.19
2022-12-25T01:38:32.081Z,5.20
2022-12-25T01:43:32.064Z,5.32
2022-12-25T01:48:31.950Z,5.40
2022-12-25T01:53:31.907Z,5.35
2022-12-25T01:58:31.839Z,5.50
2022-12-25T02:03:32.036Z,5.46
2022-12-25T02:08:31.680Z,5.24
2022-12-25T02:13:31.633Z,5.19
2022-12-25T02:18:31.544Z,5.19
2022-12-25T02:23:31.521Z,5.20
2022-12-25T02:28:31.425Z,5.04
2022-12-25T02:33:31.338Z,4.91
2022-12-25T02:38:31.278Z,4.81
2022-12-25T02:43:31.207Z,4.77
2022-12-25T02:48:31.148Z,4.59
2022-12-25T02:53:31.078Z,4.48
2022-12-25T02:58:31.013Z,4.52
2022-12-25T03:03:31.031Z,4.50
2022-12-25T03:08:30.891Z,4.55
2022-12-25T03:13:30.807Z,4.52
2022-12-25T03:18:30.783Z,4.37
2022-12-25T03:23:30.680Z,4.19
2022-12-25T03:28:30.620Z,4.12
2022-12-25T03:33:45.123Z,4.17
2022-12-25T03:38:31.528Z,4.19
2022-12-25T03:43:30.417Z,4.12
2022-12-25T03:48:30.353Z,4.17
2022-12-25T03:53:30.281Z,4.23
2022-12-25T03:58:30.223Z,4.28
2022-12-25T04:03:30.246Z,4.37
2022-12-25T04:08:30.102Z,4.35
2022-12-25T04:13:30.061Z,4.34
2022-12-25T04:18:29.962Z,4.28
2022-12-25T04:23:29.889Z,4.34
2022-12-25T04:28:29.849Z,4.24
2022-12-25T04:33:29.757Z,4.12
2022-12-25T04:38:29.707Z,4.19
2022-12-25T04:43:29.625Z,4.23
2022-12-25T04:48:29.566Z,4.40
2022-12-25T04:53:29.496Z,4.48
2022-12-25T04:58:29.430Z,4.48
2022-12-25T05:03:29.465Z,4.38
2022-12-25T05:08:29.290Z,4.48
2022-12-25T05:13:29.243Z,4.45
2022-12-25T05:18:29.160Z,4.53
2022-12-25T05:23:29.127Z,4.53
2022-12-25T05:28:29.030Z,4.49
2022-12-25T05:33:28.981Z,4.52
2022-12-25T05:38:28.906Z,4.60
2022-12-25T05:43:28.848Z,4.66
2022-12-25T05:48:28.765Z,4.88
2022-12-25T05:53:28.711Z,5.06
2022-12-25T05:58:28.638Z,5.22
2022-12-25T06:03:28.735Z,5.04
2022-12-25T06:08:28.503Z,5.20
2022-12-25T06:13:28.460Z,5.25
2022-12-25T06:18:28.380Z,5.31
2022-12-25T06:23:28.376Z,5.34
2022-12-25T06:28:28.248Z,5.49
2022-12-25T06:33:28.194Z,5.59
2022-12-25T06:38:28.112Z,5.69
2022-12-25T06:43:28.062Z,5.73
2022-12-25T06:48:27.983Z,5.89
2022-12-25T06:53:30.175Z,6.08
2022-12-25T06:58:27.841Z,6.22
2022-12-25T07:03:27.859Z,6.34
2022-12-25T07:08:27.727Z,6.77
2022-12-25T07:13:27.703Z,6.91
2022-12-25T07:18:27.575Z,6.96
2022-12-25T07:23:27.528Z,6.95
2022-12-25T07:28:27.445Z,6.92
2022-12-25T07:33:27.381Z,6.84
2022-12-25T07:38:27.304Z,6.84
2022-12-25T07:43:27.244Z,6.84
2022-12-25T07:48:27.170Z,6.71
2022-12-25T07:53:27.109Z,6.69
2022-12-25T07:58:27.037Z,6.87
2022-12-25T08:03:27.118Z,7.07
2022-12-25T08:08:26.901Z,7.21
2022-12-25T08:13:26.848Z,7.33
2022-12-25T08:18:29.861Z,7.47
2022-12-25T08:23:26.716Z,7.61
2022-12-25T08:28:26.640Z,7.75
2022-12-25T08:33:26.587Z,7.90
2022-12-25T08:38:26.501Z,7.99
2022-12-25T08:43:26.451Z,8.17
2022-12-25T08:48:26.467Z,8.32
2022-12-25T08:53:26.322Z,8.49
2022-12-25T08:58:26.234Z,8.61
2022-12-25T09:03:26.276Z,8.71
2022-12-25T09:08:26.112Z,8.69
2022-12-25T09:13:26.045Z,8.89
2022-12-25T09:18:25.968Z,11.01
2022-12-25T09:23:25.912Z,13.03
2022-12-25T09:28:25.855Z,14.99
2022-12-25T09:33:25.780Z,13.66
2022-12-25T09:38:25.716Z,14.53
2022-12-25T09:43:25.654Z,15.54
2022-12-25T09:48:25.581Z,15.45
2022-12-25T09:53:25.546Z,13.45
2022-12-25T09:58:25.446Z,13.19
2022-12-25T10:03:25.413Z,12.42
2022-12-25T10:08:25.318Z,11.98
2022-12-25T10:13:25.265Z,11.72
2022-12-25T10:18:25.182Z,11.45
2022-12-25T10:23:25.125Z,11.36
2022-12-25T10:28:25.056Z,11.37
2022-12-25T10:33:24.976Z,11.60
2022-12-25T10:38:24.914Z,11.48
2022-12-25T10:43:24.862Z,11.57
2022-12-25T10:48:24.783Z,11.70
2022-12-25T10:53:24.715Z,11.63
2022-12-25T10:58:24.651Z,11.47
2022-12-25T11:03:24.756Z,11.37
2022-12-25T11:08:24.539Z,11.36
2022-12-25T11:13:24.448Z,11.52
2022-12-25T11:18:24.401Z,11.51
2022-12-25T11:23:24.316Z,11.66
2022-12-25T11:28:24.249Z,11.55
2022-12-25T11:33:24.175Z,11.55
2022-12-25T11:38:24.099Z,11.52
2022-12-25T11:43:24.081Z,11.51
2022-12-25T11:48:24.006Z,11.60
2022-12-25T11:53:23.910Z,11.68
2022-12-25T11:58:23.843Z,11.65
2022-12-25T12:03:23.960Z,11.65
2022-12-25T12:08:23.768Z,11.62
2022-12-25T12:13:23.742Z,11.62
2022-12-25T12:18:23.787Z,11.60
2022-12-25T12:23:23.506Z,11.55
2022-12-25T12:28:23.435Z,11.52
2022-12-25T12:33:23.375Z,11.48
2022-12-25T12:38:23.297Z,11.47
2022-12-25T12:43:23.235Z,11.44
2022-12-25T12:48:23.165Z,11.43
2022-12-25T12:53:23.104Z,11.40
2022-12-25T12:58:23.029Z,11.37
2022-12-25T13:03:23.019Z,11.33
2022-12-25T13:08:22.907Z,11.33
2022-12-25T13:13:22.834Z,11.32
2022-12-25T13:18:22.770Z,11.33
2022-12-25T13:23:22.704Z,11.33
2022-12-25T13:28:22.636Z,11.37
2022-12-25T13:33:22.594Z,11.40
2022-12-25T13:38:22.518Z,11.36
2022-12-25T13:43:22.435Z,11.30
2022-12-25T13:48:22.379Z,11.26
2022-12-25T13:53:22.302Z,11.23
2022-12-25T13:58:22.225Z,11.23
2022-12-25T14:03:22.338Z,11.16
2022-12-25T14:08:22.105Z,11.07
2022-12-25T14:13:22.033Z,11.06
2022-12-25T14:18:21.962Z,10.99
2022-12-25T14:23:21.897Z,10.96
2022-12-25T14:28:21.838Z,10.93
2022-12-25T14:33:21.767Z,10.91
2022-12-25T14:38:21.700Z,10.80
2022-12-25T14:43:21.635Z,10.78
2022-12-25T14:48:25.214Z,10.68
2022-12-25T14:53:21.499Z,10.56
2022-12-25T14:58:21.461Z,10.52
2022-12-25T15:03:21.571Z,10.53
2022-12-25T15:08:21.288Z,10.53
2022-12-25T15:13:21.224Z,10.52
2022-12-25T15:18:21.153Z,10.44
2022-12-25T15:23:21.349Z,10.46
2022-12-25T15:28:21.037Z,10.42
2022-12-25T15:33:20.958Z,10.41
2022-12-25T15:38:20.889Z,10.48
2022-12-25T15:43:39.897Z,10.52
2022-12-25T15:48:21.786Z,10.49
2022-12-25T15:53:20.694Z,10.49
2022-12-25T15:58:20.621Z,10.52
2022-12-25T16:03:20.632Z,10.60
2022-12-25T16:08:20.492Z,10.62
2022-12-25T16:13:20.426Z,10.66
2022-12-25T16:18:20.357Z,10.74
2022-12-25T16:23:20.311Z,10.68
2022-12-25T16:28:20.224Z,10.66
2022-12-25T16:33:20.171Z,10.60
2022-12-25T16:38:20.085Z,10.58
2022-12-25T16:43:23.976Z,10.58
2022-12-25T16:48:19.955Z,10.59
2022-12-25T16:53:19.903Z,10.55
2022-12-25T16:58:19.821Z,10.52
2022-12-25T17:03:19.880Z,10.49
2022-12-25T17:08:19.689Z,10.46
2022-12-25T17:13:19.628Z,10.44
2022-12-25T17:18:19.567Z,10.46
2022-12-25T17:23:19.496Z,10.44
2022-12-25T17:28:19.417Z,10.40
2022-12-25T17:33:19.359Z,10.40
2022-12-25T17:38:19.283Z,10.52
2022-12-25T17:43:21.143Z,10.78
2022-12-25T17:48:19.157Z,10.96
2022-12-25T17:53:19.104Z,11.17
2022-12-25T17:58:19.062Z,11.25
2022-12-25T18:03:19.179Z,11.25
2022-12-25T18:08:18.881Z,11.27
2022-12-25T18:13:18.835Z,11.33
2022-12-25T18:18:18.754Z,11.41
2022-12-25T18:23:18.700Z,11.47
2022-12-25T18:28:18.621Z,11.52
2022-12-25T18:33:18.567Z,11.60
2022-12-25T18:38:18.479Z,11.72
2022-12-25T18:43:18.430Z,11.78
2022-12-25T18:48:18.346Z,11.96
2022-12-25T18:53:18.296Z,12.02
2022-12-25T18:58:18.212Z,12.12
2022-12-25T19:03:18.237Z,12.08
2022-12-25T19:08:18.082Z,12.12
2022-12-25T19:13:18.016Z,12.14
2022-12-25T19:18:17.945Z,12.19
2022-12-25T19:23:17.884Z,12.20
2022-12-25T19:28:17.835Z,12.21
2022-12-25T19:33:18.211Z,12.27
2022-12-25T19:38:17.677Z,12.30
2022-12-25T19:43:17.630Z,12.26
2022-12-25T19:48:17.544Z,12.24
2022-12-25T19:53:17.500Z,12.28
2022-12-25T19:58:17.414Z,12.24
2022-12-25T20:03:17.422Z,12.21
2022-12-25T20:08:17.280Z,12.20
2022-12-25T20:13:17.231Z,12.21
2022-12-25T20:18:17.147Z,12.31
2022-12-25T20:23:17.088Z,12.30
2022-12-25T20:28:17.015Z,12.30
2022-12-25T20:33:16.955Z,12.27
2022-12-25T20:38:16.884Z,12.26
2022-12-25T20:43:16.825Z,12.26
2022-12-25T20:48:16.746Z,12.34
2022-12-25T20:53:16.719Z,12.36
2022-12-25T20:58:16.613Z,12.28
2022-12-25T21:03:16.734Z,12.26
2022-12-25T21:08:16.481Z,12.27
2022-12-25T21:13:16.422Z,12.27
2022-12-25T21:18:16.351Z,12.30
2022-12-25T21:23:16.288Z,12.28
2022-12-25T21:28:16.213Z,12.23
2022-12-25T21:33:17.309Z,12.19
2022-12-25T21:38:16.086Z,12.11
2022-12-25T21:43:16.038Z,12.08
2022-12-25T21:48:15.961Z,12.02
2022-12-25T21:53:15.909Z,12.11
2022-12-25T21:58:15.826Z,12.12
2022-12-25T22:03:15.830Z,12.14
2022-12-25T22:08:15.711Z,12.16
2022-12-25T22:13:15.665Z,12.20
2022-12-25T22:18:15.561Z,12.17
2022-12-25T22:23:15.488Z,12.09
2022-12-25T22:28:15.424Z,12.02
2022-12-25T22:33:15.373Z,11.96
2022-12-25T22:38:15.286Z,11.93
2022-12-25T22:43:15.224Z,11.96
2022-12-25T22:48:15.149Z,12.03
2022-12-25T22:53:15.095Z,12.11
2022-12-25T22:58:16.026Z,12.14
2022-12-25T23:03:15.112Z,12.12
2022-12-25T23:08:14.906Z,12.17
2022-12-25T23:13:14.826Z,12.20
2022-12-25T23:18:14.784Z,12.21
2022-12-25T23:23:14.692Z,12.19
2022-12-25T23:28:14.628Z,12.12
2022-12-25T23:33:14.558Z,12.06
2022-12-25T23:38:14.495Z,12.03
2022-12-25T23:43:14.417Z,11.98
2022-12-25T23:48:14.390Z,11.96
2022-12-25T23:53:14.288Z,11.94
2022-12-25T23:58:14.228Z,11.96
